Time;durP1;ratioP1;P1;durP2;ratioP2;P2;SDS_P1;SDS_P2;PMS_P1;PMS_P2;Temp;Humidity;BMP_temperature;BMP_pressure;BME280_temperature;BME280_humidity;BME280_pressure;Samples;Min_cycle;Max_cycle;Signal;HPM_P1;HPM_P2
2021/06/11 00:00:29;;;;;;;13.90;4.90;;;15.40;99.90;;;;;;4171480;28;20036;-63
2021/06/11 00:02:30;;;;;;;6.30;5.00;;;15.50;99.90;;;;;;4172385;28;20843;-63
2021/06/11 00:04:31;;;;;;;8.50;5.13;;;15.50;99.90;;;;;;4172065;28;20025;-63
2021/06/11 00:06:32;;;;;;;5.37;4.87;;;15.50;99.90;;;;;;4154735;28;20043;-63
2021/06/11 00:08:33;;;;;;;5.57;5.07;;;15.40;99.90;;;;;;4172093;28;20029;-65
2021/06/11 00:10:35;;;;;;;7.00;4.97;;;15.40;99.90;;;;;;4171324;28;20049;-64
2021/06/11 00:12:37;;;;;;;7.50;5.30;;;15.30;99.90;;;;;;4171641;28;20102;-63
2021/06/11 00:14:39;;;;;;;6.23;5.23;;;15.30;99.90;;;;;;4171267;28;20037;-61
2021/06/11 00:16:40;;;;;;;7.20;5.17;;;15.30;99.90;;;;;;4172493;28;20025;-62
2021/06/11 00:18:41;;;;;;;5.77;4.67;;;15.30;99.90;;;;;;4171313;28;20087;-62
2021/06/11 00:20:42;;;;;;;8.53;6.10;;;15.20;99.90;;;;;;4171670;28;20465;-63
2021/06/11 00:22:43;;;;;;;7.57;4.93;;;15.20;99.90;;;;;;4171763;28;20102;-63
2021/06/11 00:24:45;;;;;;;7.17;4.47;;;15.20;99.90;;;;;;4171848;28;20033;-64
2021/06/11 00:26:46;;;;;;;4.97;4.47;;;15.20;99.90;;;;;;4171633;28;20046;-62
2021/06/11 00:28:47;;;;;;;7.30;4.70;;;15.20;99.90;;;;;;4172305;28;20033;-63
2021/06/11 00:30:48;;;;;;;7.43;5.23;;;15.20;99.90;;;;;;4171975;28;20039;-63
2021/06/11 00:32:51;;;;;;;7.10;4.97;;;15.10;99.90;;;;;;4172293;28;20393;-65
2021/06/11 00:34:52;;;;;;;7.73;5.00;;;15.10;99.90;;;;;;4172257;28;20074;-63
2021/06/11 00:36:53;;;;;;;8.17;5.53;;;15.00;99.90;;;;;;4172059;28;20036;-64
2021/06/11 00:38:54;;;;;;;6.60;5.60;;;15.00;99.90;;;;;;4171608;28;20061;-64
2021/06/11 00:40:55;;;;;;;6.87;5.07;;;14.90;99.90;;;;;;4172002;28;20033;-64
2021/06/11 00:42:58;;;;;;;8.40;5.43;;;14.80;99.90;;;;;;4162872;28;20033;-65
2021/06/11 00:45:00;;;;;;;8.90;6.17;;;14.80;99.90;;;;;;4155036;28;20486;-64
2021/06/11 00:47:01;;;;;;;9.37;5.80;;;14.70;99.90;;;;;;4155333;28;20084;-63
2021/06/11 00:49:03;;;;;;;6.20;4.57;;;14.70;99.90;;;;;;4175847;28;20505;-65
2021/06/11 00:51:04;;;;;;;10.80;5.30;;;14.60;99.90;;;;;;4175817;28;20029;-63
2021/06/11 00:53:10;;;;;;;6.67;4.90;;;14.60;99.90;;;;;;4174036;28;20033;-64
2021/06/11 00:55:11;;;;;;;7.57;4.87;;;14.60;99.90;;;;;;4175265;28;20037;-63
2021/06/11 00:57:12;;;;;;;7.40;4.80;;;14.60;99.90;;;;;;4174944;28;20029;-63
2021/06/11 00:59:14;;;;;;;7.97;5.07;;;14.60;99.90;;;;;;4175412;28;20033;-64
2021/06/11 01:01:15;;;;;;;5.73;5.17;;;14.60;99.90;;;;;;4174824;28;20075;-65
2021/06/11 01:03:18;;;;;;;5.90;5.10;;;14.60;99.90;;;;;;4175359;28;20095;-66
2021/06/11 01:05:19;;;;;;;7.37;5.30;;;14.60;99.90;;;;;;4174457;28;20157;-64
2021/06/11 01:07:22;;;;;;;7.77;5.27;;;14.50;99.90;;;;;;4174207;28;20094;-65
2021/06/11 01:09:25;;;;;;;6.33;4.80;;;14.50;99.90;;;;;;4173827;28;20083;-63
2021/06/11 01:11:27;;;;;;;9.13;5.10;;;14.40;99.90;;;;;;4174818;28;20427;-64
2021/06/11 01:13:28;;;;;;;5.57;5.07;;;14.40;99.90;;;;;;4174874;28;20070;-63
2021/06/11 01:15:30;;;;;;;7.80;5.23;;;14.40;99.90;;;;;;4174863;28;20033;-61
2021/06/11 01:17:34;;;;;;;5.47;4.90;;;14.40;99.90;;;;;;4174906;28;20037;-64
2021/06/11 01:19:50;;;;;;;8.50;4.83;;;14.40;99.90;;;;;;4175074;28;20091;-65
2021/06/11 01:22:02;;;;;;;8.20;4.80;;;14.40;99.90;;;;;;4174960;28;20051;-64
2021/06/11 01:24:21;;;;;;;6.33;5.10;;;14.40;99.90;;;;;;4174433;28;20029;-63
2021/06/11 01:26:32;;;;;;;5.50;4.90;;;14.40;99.90;;;;;;4174895;28;20025;-64
2021/06/11 01:28:33;;;;;;;5.30;4.80;;;14.40;99.90;;;;;;4173911;28;20045;-65
2021/06/11 01:30:36;;;;;;;7.23;5.33;;;14.40;99.90;;;;;;4174625;28;20033;-65
2021/06/11 01:32:39;;;;;;;6.40;4.80;;;14.40;99.90;;;;;;4174636;28;20025;-65
2021/06/11 01:34:43;;;;;;;6.07;5.07;;;14.40;99.90;;;;;;4174546;28;20055;-65
2021/06/11 01:36:52;;;;;;;8.50;5.10;;;14.40;99.90;;;;;;4174578;28;20041;-65
2021/06/11 01:38:59;;;;;;;7.17;5.07;;;14.30;99.90;;;;;;4174121;28;20598;-62
2021/06/11 01:41:01;;;;;;;6.77;5.27;;;14.30;99.90;;;;;;4174353;28;20109;-64
2021/06/11 01:43:03;;;;;;;7.37;4.97;;;14.30;99.90;;;;;;4164374;28;20482;-64
2021/06/11 01:45:10;;;;;;;5.73;5.03;;;14.20;99.90;;;;;;4157765;28;20432;-63
2021/06/11 01:47:13;;;;;;;10.60;5.97;;;14.10;99.90;;;;;;4158301;28;20033;-64
2021/06/11 01:49:15;;;;;;;7.20;5.33;;;14.10;99.90;;;;;;4157837;28;20030;-64
2021/06/11 01:51:18;;;;;;;7.63;5.27;;;14.10;99.90;;;;;;4157622;28;20040;-65
2021/06/11 01:53:21;;;;;;;5.90;5.07;;;14.00;99.90;;;;;;4157617;28;20713;-61
2021/06/11 01:55:23;;;;;;;6.33;4.87;;;14.00;99.90;;;;;;4157808;28;20033;-66
2021/06/11 01:57:25;;;;;;;8.07;5.00;;;14.00;99.90;;;;;;4157279;28;20118;-65
2021/06/11 01:59:27;;;;;;;6.83;5.00;;;14.00;99.90;;;;;;4157290;28;20041;-63
2021/06/11 02:01:31;;;;;;;9.87;5.20;;;14.00;99.90;;;;;;4156585;28;20087;-62
2021/06/11 02:03:32;;;;;;;6.03;5.27;;;14.00;99.90;;;;;;4157234;28;20087;-64
2021/06/11 02:05:34;;;;;;;7.77;4.80;;;14.00;99.90;;;;;;4157319;28;20056;-64
2021/06/11 02:07:36;;;;;;;5.07;4.57;;;14.00;99.90;;;;;;4157440;28;20029;-63
2021/06/11 02:09:39;;;;;;;7.57;5.20;;;13.90;99.90;;;;;;4157339;28;20461;-64
2021/06/11 02:11:41;;;;;;;7.07;4.63;;;13.90;99.90;;;;;;4157448;28;20019;-62
2021/06/11 02:13:46;;;;;;;5.17;4.67;;;14.00;99.90;;;;;;4157711;28;20543;-64
2021/06/11 02:15:49;;;;;;;5.53;4.97;;;13.90;99.90;;;;;;4157277;28;20045;-64
2021/06/11 02:17:51;;;;;;;8.87;5.13;;;13.90;99.90;;;;;;4156766;28;20049;-64
2021/06/11 02:19:53;;;;;;;9.03;5.90;;;14.00;99.90;;;;;;4157430;28;20440;-65
2021/06/11 02:21:55;;;;;;;6.93;5.07;;;13.90;99.90;;;;;;4156955;28;20025;-62
2021/06/11 02:23:57;;;;;;;6.53;5.83;;;13.90;99.90;;;;;;4156727;28;20041;-60
2021/06/11 02:25:58;;;;;;;5.37;4.60;;;13.80;99.90;;;;;;4156351;28;20707;-62
2021/06/11 02:27:59;;;;;;;7.00;5.60;;;13.80;99.90;;;;;;4156247;28;20494;-60
2021/06/11 02:30:01;;;;;;;8.23;5.40;;;13.80;99.90;;;;;;4156954;28;20486;-63
2021/06/11 02:32:04;;;;;;;9.83;5.07;;;13.80;99.90;;;;;;4156998;28;20041;-62
2021/06/11 02:34:07;;;;;;;8.83;5.23;;;13.80;99.90;;;;;;4157520;28;20163;-63
2021/06/11 02:36:09;;;;;;;6.07;5.13;;;13.80;99.90;;;;;;4157102;28;20088;-63
2021/06/11 02:38:11;;;;;;;5.23;4.60;;;13.70;99.90;;;;;;4157128;28;20818;-64
2021/06/11 02:40:13;;;;;;;6.30;5.17;;;13.70;99.90;;;;;;4156050;28;20832;-63
2021/06/11 02:42:14;;;;;;;8.77;6.03;;;13.70;99.90;;;;;;4156651;28;20091;-64
2021/06/11 02:44:16;;;;;;;6.60;5.20;;;13.80;99.90;;;;;;4157389;28;20037;-63
2021/06/11 02:46:22;;;;;;;8.80;5.97;;;13.90;99.90;;;;;;4156441;28;20037;-64
2021/06/11 02:48:33;;;;;;;6.57;5.07;;;14.00;99.90;;;;;;4157159;28;20025;-64
2021/06/11 02:50:41;;;;;;;5.95;4.93;;;14.20;99.90;;;;;;4156532;28;20449;-63
2021/06/11 02:52:48;;;;;;;5.43;4.93;;;14.40;99.90;;;;;;4155925;28;20500;-65
2021/06/11 02:54:54;;;;;;;7.27;5.13;;;14.50;99.90;;;;;;4156821;28;20429;-62
2021/06/11 02:57:41;;;;;;;8.47;4.93;;;14.50;99.90;;;;;;4155954;28;20821;-62
2021/06/11 02:59:47;;;;;;;5.60;5.00;;;14.50;99.90;;;;;;4074091;29;20039;-61
2021/06/11 03:01:53;;;;;;;7.20;5.00;;;14.40;99.90;;;;;;4073930;29;20107;-61
2021/06/11 03:03:57;;;;;;;7.13;4.80;;;14.40;99.90;;;;;;4074252;28;20067;-62
2021/06/11 03:06:01;;;;;;;6.37;5.13;;;14.30;99.90;;;;;;4155879;28;20091;-62
2021/06/11 03:08:08;;;;;;;8.13;5.33;;;14.40;99.90;;;;;;4138791;28;20026;-62
2021/06/11 03:10:10;;;;;;;7.60;4.97;;;14.50;99.90;;;;;;4156475;28;20053;-62
2021/06/11 03:12:13;;;;;;;6.33;4.77;;;14.50;99.90;;;;;;4155906;28;20103;-63
2021/06/11 03:14:16;;;;;;;6.83;4.80;;;14.50;99.90;;;;;;4156080;28;20029;-61
2021/06/11 03:16:17;;;;;;;8.30;5.37;;;14.50;99.90;;;;;;4155178;28;20599;-63
2021/06/11 03:18:29;;;;;;;7.73;5.13;;;14.40;99.90;;;;;;4156530;28;20026;-64
2021/06/11 03:20:35;;;;;;;7.17;4.90;;;14.30;99.90;;;;;;4155884;28;20033;-62
2021/06/11 03:22:40;;;;;;;6.60;5.13;;;14.20;99.90;;;;;;4155822;28;20037;-64
2021/06/11 03:24:52;;;;;;;7.17;5.57;;;14.10;99.90;;;;;;4156114;28;20450;-65
2021/06/11 03:27:02;;;;;;;7.30;5.77;;;14.00;99.90;;;;;;4156285;28;20429;-61
2021/06/11 03:29:07;;;;;;;8.50;5.07;;;14.20;99.90;;;;;;4155842;28;20155;-64
2021/06/11 03:31:15;;;;;;;6.87;5.53;;;14.60;99.90;;;;;;4155319;28;20420;-63
2021/06/11 03:33:20;;;;;;;12.50;5.87;;;15.00;99.90;;;;;;4155366;28;20064;-64
2021/06/11 03:35:26;;;;;;;7.73;5.43;;;15.50;99.90;;;;;;4155900;28;20485;-64
2021/06/11 03:37:30;;;;;;;7.23;5.57;;;15.90;99.90;;;;;;4155613;28;20033;-60
2021/06/11 03:39:38;;;;;;;8.30;5.67;;;16.30;99.90;;;;;;4155936;28;20366;-64
2021/06/11 03:41:40;;;;;;;6.33;5.37;;;16.80;99.90;;;;;;4155226;28;20045;-63
2021/06/11 03:43:42;;;;;;;6.20;4.90;;;17.40;99.90;;;;;;4171104;28;20029;-64
2021/06/11 03:45:44;;;;;;;5.82;5.03;;;17.90;99.90;;;;;;4170953;28;21883;-63
2021/06/11 03:47:47;;;;;;;6.18;4.43;;;18.30;99.90;;;;;;4172427;28;20086;-64
2021/06/11 03:49:51;;;;;;;5.65;4.13;;;18.50;99.90;;;;;;4172485;28;20098;-63
2021/06/11 03:51:54;;;;;;;6.75;4.25;;;18.90;99.90;;;;;;4171315;28;20041;-62
2021/06/11 03:53:58;;;;;;;6.82;4.63;;;19.40;99.90;;;;;;4173586;28;20048;-63
2021/06/11 03:56:03;;;;;;;8.10;5.35;;;19.70;99.90;;;;;;4181029;28;20505;-61
2021/06/11 03:58:09;;;;;;;6.75;4.60;;;19.80;99.90;;;;;;4171440;28;20049;-64
2021/06/11 04:00:11;;;;;;;11.52;4.65;;;20.20;99.90;;;;;;4153104;28;20045;-62
2021/06/11 04:02:14;;;;;;;8.68;4.65;;;20.70;99.90;;;;;;4171539;28;20044;-65
2021/06/11 04:04:16;;;;;;;10.88;4.50;;;21.00;99.90;;;;;;4167708;28;20038;-64
2021/06/11 04:06:22;;;;;;;6.50;4.20;;;21.20;99.90;;;;;;4171206;28;20477;-63
2021/06/11 04:08:24;;;;;;;13.30;4.88;;;21.20;99.90;;;;;;4167346;28;20095;-64
2021/06/11 04:10:34;;;;;;;7.18;4.25;;;21.40;99.90;;;;;;4155004;28;20065;-62
2021/06/11 04:12:42;;;;;;;5.60;3.83;;;21.80;99.90;;;;;;4155167;28;20397;-65
2021/06/11 04:14:48;;;;;;;7.22;3.83;;;22.30;99.60;;;;;;4155011;28;20072;-62
2021/06/11 04:16:53;;;;;;;5.65;3.55;;;22.70;98.90;;;;;;4137807;28;20449;-63
2021/06/11 04:18:55;;;;;;;3.30;3.00;;;23.30;98.00;;;;;;4137547;28;20483;-61
2021/06/11 04:20:59;;;;;;;5.60;3.40;;;23.90;96.40;;;;;;4155287;28;20037;-64
2021/06/11 04:23:02;;;;;;;9.27;2.83;;;23.80;95.20;;;;;;4155293;28;20831;-62
2021/06/11 04:25:06;;;;;;;5.72;3.05;;;24.20;94.40;;;;;;4155324;28;20021;-62
2021/06/11 04:27:07;;;;;;;8.13;3.42;;;24.50;93.50;;;;;;4162057;28;20488;-62
2021/06/11 04:29:11;;;;;;;4.68;3.22;;;24.80;92.30;;;;;;4174407;28;20063;-60
2021/06/11 04:31:13;;;;;;;4.40;2.88;;;24.30;91.80;;;;;;4175006;28;20030;-63
2021/06/11 04:33:24;;;;;;;3.67;3.17;;;24.40;91.80;;;;;;4173777;28;20055;-59
2021/06/11 04:35:27;;;;;;;5.65;3.00;;;24.10;90.40;;;;;;4175257;28;20029;-63
2021/06/11 04:37:28;;;;;;;5.82;3.22;;;24.50;91.20;;;;;;4174486;28;20436;-63
2021/06/11 04:39:29;;;;;;;8.82;3.05;;;25.00;90.20;;;;;;4158274;28;20099;-62
2021/06/11 04:41:30;;;;;;;4.57;2.63;;;25.70;88.40;;;;;;4157399;28;20049;-62
2021/06/11 04:43:31;;;;;;;3.60;2.97;;;26.10;85.90;;;;;;4157698;28;20474;-62
2021/06/11 04:45:34;;;;;;;6.00;2.90;;;26.20;84.30;;;;;;4158142;28;20083;-64
2021/06/11 04:47:35;;;;;;;7.10;3.80;;;26.60;82.70;;;;;;4157242;28;20049;-63
2021/06/11 04:49:36;;;;;;;4.68;2.92;;;26.80;81.40;;;;;;4158610;28;20111;-63
2021/06/11 04:51:38;;;;;;;7.93;3.42;;;26.90;79.90;;;;;;4158384;28;20021;-63
2021/06/11 04:53:39;;;;;;;4.68;2.95;;;26.60;78.90;;;;;;4156692;28;20029;-62
2021/06/11 04:55:40;;;;;;;3.85;2.97;;;26.40;79.00;;;;;;4156737;28;20038;-63
2021/06/11 04:57:42;;;;;;;3.88;2.83;;;26.60;78.20;;;;;;4139042;28;20085;-65
2021/06/11 04:59:43;;;;;;;4.78;2.80;;;27.10;77.10;;;;;;4157630;28;20096;-66
2021/06/11 05:01:47;;;;;;;4.53;2.47;;;27.60;75.50;;;;;;4161999;28;20528;-62
2021/06/11 05:03:48;;;;;;;4.75;2.95;;;28.00;74.30;;;;;;4163346;28;20584;-62
2021/06/11 05:05:49;;;;;;;7.10;3.00;;;28.20;72.70;;;;;;4157605;28;20444;-61
2021/06/11 05:07:50;;;;;;;3.50;2.45;;;28.00;71.90;;;;;;4157553;28;20025;-62
2021/06/11 05:09:52;;;;;;;5.25;2.67;;;27.20;72.30;;;;;;4157692;28;20650;-61
2021/06/11 05:11:53;;;;;;;8.13;3.00;;;26.10;73.60;;;;;;4157455;28;20026;-64
2021/06/11 05:13:54;;;;;;;4.80;3.22;;;25.40;74.80;;;;;;4157023;28;20135;-63
2021/06/11 05:15:55;;;;;;;4.68;2.42;;;25.10;76.20;;;;;;4157389;28;20072;-63
2021/06/11 05:18:03;;;;;;;3.35;2.42;;;25.00;76.20;;;;;;4157161;28;20049;-62
2021/06/11 05:20:05;;;;;;;10.45;3.00;;;25.10;75.50;;;;;;4158246;28;20804;-63
2021/06/11 05:22:06;;;;;;;4.75;2.60;;;25.40;75.80;;;;;;4157498;28;20030;-62
2021/06/11 05:24:07;;;;;;;5.15;2.92;;;25.50;75.30;;;;;;4157223;28;20041;-63
2021/06/11 05:26:09;;;;;;;5.13;3.03;;;25.70;74.70;;;;;;4157731;28;20056;-63
2021/06/11 05:28:10;;;;;;;5.38;2.88;;;26.10;74.30;;;;;;4156940;28;20045;-63
2021/06/11 05:30:12;;;;;;;3.35;2.55;;;26.10;74.10;;;;;;4157709;28;20871;-62
2021/06/11 05:32:14;;;;;;;3.70;3.38;;;26.00;73.90;;;;;;4157165;28;20046;-62
2021/06/11 05:34:15;;;;;;;5.30;2.70;;;26.10;73.90;;;;;;4157172;28;20050;-63
2021/06/11 05:36:16;;;;;;;4.65;2.83;;;26.20;73.80;;;;;;4157251;28;20065;-61
2021/06/11 05:38:18;;;;;;;3.97;2.90;;;26.30;73.70;;;;;;4156340;28;20026;-63
2021/06/11 05:40:19;;;;;;;8.40;2.53;;;26.30;73.60;;;;;;4157749;28;20029;-63
2021/06/11 05:42:20;;;;;;;5.95;3.10;;;25.90;73.50;;;;;;4156071;28;20488;-63
2021/06/11 05:44:21;;;;;;;4.38;3.00;;;25.80;74.20;;;;;;4157523;28;20121;-62
2021/06/11 05:46:22;;;;;;;5.85;2.80;;;26.10;74.00;;;;;;4157630;28;20037;-62
2021/06/11 05:48:24;;;;;;;3.65;2.80;;;26.20;73.70;;;;;;4157759;28;20030;-61
2021/06/11 05:50:27;;;;;;;4.93;2.60;;;26.30;73.40;;;;;;4157696;28;20060;-62
2021/06/11 05:52:28;;;;;;;6.72;2.95;;;26.40;73.30;;;;;;4157090;28;20088;-63
2021/06/11 05:54:29;;;;;;;2.53;2.00;;;26.60;73.40;;;;;;4157413;28;20550;-61
2021/06/11 05:56:30;;;;;;;4.78;2.72;;;26.90;73.30;;;;;;4157011;28;20045;-63
2021/06/11 05:58:31;;;;;;;5.00;2.85;;;26.90;72.60;;;;;;4157200;28;20026;-64
2021/06/11 06:00:32;;;;;;;7.68;3.10;;;26.70;72.70;;;;;;4157336;28;20033;-64
2021/06/11 06:02:34;;;;;;;4.53;3.75;;;26.60;72.80;;;;;;4156980;28;20017;-62
2021/06/11 06:04:36;;;;;;;7.80;4.90;;;26.40;72.70;;;;;;4156337;28;20033;-63
2021/06/11 06:06:37;;;;;;;8.20;4.55;;;25.40;73.40;;;;;;4156614;28;20045;-63
2021/06/11 06:08:38;;;;;;;6.90;3.22;;;24.70;75.60;;;;;;4156691;28;20497;-62
2021/06/11 06:10:39;;;;;;;6.78;3.22;;;24.70;76.70;;;;;;4156811;28;20120;-62
2021/06/11 06:12:40;;;;;;;6.10;3.00;;;24.80;77.00;;;;;;4155871;28;20033;-63
2021/06/11 06:14:41;;;;;;;6.30;3.63;;;25.00;76.70;;;;;;4157108;28;20025;-64
2021/06/11 06:16:42;;;;;;;8.05;3.25;;;24.60;77.00;;;;;;4156403;28;20049;-61
2021/06/11 06:18:44;;;;;;;11.52;4.13;;;24.50;78.00;;;;;;4156626;28;20459;-61
2021/06/11 06:20:46;;;;;;;8.02;4.07;;;24.50;78.30;;;;;;4156869;28;20103;-62
2021/06/11 06:22:47;;;;;;;8.13;4.47;;;24.20;78.90;;;;;;4156824;28;20017;-62
2021/06/11 06:24:48;;;;;;;8.80;4.32;;;23.80;79.80;;;;;;4156737;28;20014;-61
2021/06/11 06:26:50;;;;;;;10.50;3.83;;;23.10;81.50;;;;;;4156853;28;20072;-62
2021/06/11 06:28:51;;;;;;;11.35;3.70;;;22.80;83.00;;;;;;4156396;28;20068;-63
2021/06/11 06:30:52;;;;;;;6.47;4.00;;;22.60;84.30;;;;;;4156419;28;20543;-61
2021/06/11 06:32:53;;;;;;;8.85;3.72;;;22.40;85.10;;;;;;4157021;28;20029;-63
2021/06/11 06:34:54;;;;;;;10.10;3.75;;;22.40;85.90;;;;;;4156073;28;20095;-62
2021/06/11 06:36:55;;;;;;;12.65;4.70;;;22.30;86.60;;;;;;4156600;28;20037;-63
2021/06/11 06:39:00;;;;;;;12.15;4.07;;;22.20;87.70;;;;;;4156593;28;20041;-64
2021/06/11 06:41:02;;;;;;;8.00;4.57;;;21.90;89.30;;;;;;4156940;28;20021;-64
2021/06/11 06:43:03;;;;;;;6.82;4.65;;;21.80;90.50;;;;;;4156674;28;20429;-64
2021/06/11 06:45:12;;;;;;;6.65;4.10;;;21.40;91.50;;;;;;4155752;28;20037;-64
2021/06/11 06:47:13;;;;;;;11.98;4.60;;;21.20;92.60;;;;;;4138627;28;20049;-63
2021/06/11 06:49:14;;;;;;;8.45;4.30;;;21.00;93.70;;;;;;4155476;28;20025;-63
2021/06/11 06:51:16;;;;;;;9.30;4.47;;;21.00;94.80;;;;;;4156619;28;20033;-63
2021/06/11 06:53:18;;;;;;;10.68;3.80;;;21.00;95.50;;;;;;4138073;28;20073;-63
2021/06/11 06:55:19;;;;;;;6.45;3.90;;;21.00;96.10;;;;;;4156652;28;20539;-63
2021/06/11 06:57:20;;;;;;;7.85;4.03;;;21.40;96.10;;;;;;4154746;28;20033;-62
2021/06/11 06:59:22;;;;;;;9.70;3.97;;;21.80;95.70;;;;;;4155151;28;20030;-64
2021/06/11 07:01:25;;;;;;;8.25;3.78;;;21.90;95.30;;;;;;4156214;28;20068;-63
2021/06/11 07:03:26;;;;;;;9.43;4.20;;;22.20;95.10;;;;;;4156707;28;20041;-62
2021/06/11 07:05:27;;;;;;;5.43;3.63;;;22.40;94.80;;;;;;4155232;28;20033;-62
2021/06/11 07:07:28;;;;;;;6.88;3.20;;;22.50;94.80;;;;;;4155802;28;20103;-61
2021/06/11 07:09:30;;;;;;;6.68;3.58;;;22.00;95.20;;;;;;4155552;28;20088;-63
2021/06/11 07:11:32;;;;;;;5.82;4.07;;;21.80;96.10;;;;;;4155936;28;20037;-62
2021/06/11 07:13:34;;;;;;;12.18;3.50;;;21.60;96.70;;;;;;4155939;28;20029;-64
2021/06/11 07:15:35;;;;;;;5.70;3.20;;;21.70;96.90;;;;;;4155388;28;20033;-64
2021/06/11 07:17:37;;;;;;;13.02;4.10;;;21.70;96.90;;;;;;4155594;28;20076;-63
2021/06/11 07:19:38;;;;;;;6.38;4.03;;;21.50;97.30;;;;;;4155082;28;20045;-64
2021/06/11 07:21:40;;;;;;;9.25;3.58;;;21.50;97.30;;;;;;4155452;28;20037;-62
2021/06/11 07:23:41;;;;;;;11.20;3.33;;;21.50;97.50;;;;;;4156094;28;20095;-63
2021/06/11 07:25:42;;;;;;;8.85;3.60;;;21.70;97.40;;;;;;4154882;28;20042;-62
2021/06/11 07:27:43;;;;;;;7.22;3.33;;;21.60;97.40;;;;;;4154777;28;20456;-64
2021/06/11 07:29:45;;;;;;;10.02;3.65;;;21.80;97.30;;;;;;4155759;28;20483;-63
2021/06/11 07:31:46;;;;;;;7.97;3.45;;;21.90;97.10;;;;;;4155837;28;20075;-62
2021/06/11 07:33:47;;;;;;;4.75;3.35;;;22.20;96.90;;;;;;4155555;28;20037;-63
2021/06/11 07:35:49;;;;;;;9.00;3.75;;;22.60;96.50;;;;;;4155387;28;20091;-63
2021/06/11 07:37:51;;;;;;;7.35;3.70;;;22.90;95.80;;;;;;4155690;28;20049;-63
2021/06/11 07:39:52;;;;;;;8.32;3.72;;;22.90;95.60;;;;;;4155051;28;20038;-65
2021/06/11 07:41:54;;;;;;;6.20;3.63;;;23.00;95.30;;;;;;4154773;28;20103;-65
2021/06/11 07:43:56;;;;;;;9.88;4.05;;;23.00;95.20;;;;;;4154770;28;20049;-63
2021/06/11 07:45:57;;;;;;;4.75;3.50;;;22.80;95.20;;;;;;4155927;28;20056;-63
2021/06/11 07:47:58;;;;;;;13.73;4.28;;;22.80;95.40;;;;;;4154955;28;20037;-65
2021/06/11 07:49:59;;;;;;;10.95;3.58;;;22.70;95.80;;;;;;4155376;28;20087;-63
2021/06/11 07:52:00;;;;;;;8.30;3.63;;;22.70;95.60;;;;;;4155429;28;20074;-63
2021/06/11 07:54:01;;;;;;;11.80;4.35;;;22.70;95.70;;;;;;4155361;28;20091;-63
2021/06/11 07:56:04;;;;;;;5.07;3.17;;;23.20;95.10;;;;;;4155339;28;20611;-64
2021/06/11 07:58:05;;;;;;;3.83;3.25;;;23.30;94.80;;;;;;4154629;28;20908;-63
2021/06/11 08:00:07;;;;;;;6.65;3.10;;;23.60;94.50;;;;;;4154992;28;20033;-62
2021/06/11 08:02:08;;;;;;;11.57;3.95;;;23.90;93.90;;;;;;4154661;28;20528;-61
2021/06/11 08:04:10;;;;;;;4.40;3.13;;;23.90;93.60;;;;;;4155487;28;20072;-63
2021/06/11 08:06:11;;;;;;;7.97;3.33;;;23.90;93.40;;;;;;4155297;28;20068;-62
2021/06/11 08:08:12;;;;;;;7.93;3.20;;;23.60;93.80;;;;;;4155330;28;20080;-63
2021/06/11 08:10:13;;;;;;;5.13;3.40;;;23.50;94.10;;;;;;4154475;28;20045;-62
2021/06/11 08:12:15;;;;;;;6.65;3.22;;;23.40;94.30;;;;;;4137551;28;20041;-63
2021/06/11 08:14:16;;;;;;;4.63;3.15;;;23.40;94.30;;;;;;4155035;28;20033;-65
2021/06/11 08:16:18;;;;;;;5.28;3.30;;;23.30;94.40;;;;;;4155597;28;20045;-62
2021/06/11 08:18:19;;;;;;;4.43;2.83;;;22.90;94.70;;;;;;4155001;28;20042;-63
2021/06/11 08:20:20;;;;;;;4.65;3.22;;;22.90;94.60;;;;;;4154638;28;20042;-61
2021/06/11 08:22:21;;;;;;;7.70;3.13;;;23.10;94.60;;;;;;4155097;28;20033;-61
2021/06/11 08:24:23;;;;;;;4.03;3.05;;;23.00;94.60;;;;;;4154669;28;20037;-63
2021/06/11 08:26:24;;;;;;;5.70;3.30;;;23.10;94.70;;;;;;4155255;28;20057;-62
2021/06/11 08:28:25;;;;;;;3.53;2.53;;;23.10;94.80;;;;;;4154218;28;20457;-62
2021/06/11 08:30:27;;;;;;;3.75;2.88;;;23.10;94.80;;;;;;4154964;28;20052;-63
2021/06/11 08:32:30;;;;;;;3.40;2.65;;;23.20;94.80;;;;;;4155187;28;20735;-62
2021/06/11 08:34:35;;;;;;;2.58;2.38;;;23.30;94.50;;;;;;4153742;28;20427;-63
2021/06/11 08:36:36;;;;;;;5.65;2.65;;;23.20;94.50;;;;;;4154852;28;20033;-64
2021/06/11 08:38:38;;;;;;;4.90;2.88;;;23.20;94.50;;;;;;4154889;28;20037;-63
2021/06/11 08:40:39;;;;;;;2.40;2.20;;;23.20;94.40;;;;;;4136870;28;20038;-63
2021/06/11 08:42:44;;;;;;;5.05;2.72;;;23.20;93.90;;;;;;4154865;28;20033;-62
2021/06/11 08:44:45;;;;;;;6.50;3.00;;;23.30;93.80;;;;;;4153770;28;20088;-63
2021/06/11 08:46:48;;;;;;;9.70;3.05;;;23.40;93.90;;;;;;4155443;28;20027;-61
2021/06/11 08:48:49;;;;;;;4.32;2.67;;;23.50;93.90;;;;;;4155150;28;20064;-63
2021/06/11 08:50:50;;;;;;;4.15;2.90;;;23.40;93.60;;;;;;4154542;28;20448;-63
2021/06/11 08:52:51;;;;;;;3.30;2.53;;;23.30;93.70;;;;;;4154619;28;20034;-63
2021/06/11 08:54:53;;;;;;;5.15;2.90;;;23.50;93.40;;;;;;4154228;28;20099;-61
2021/06/11 08:56:55;;;;;;;6.28;2.42;;;23.50;93.20;;;;;;4154544;28;20088;-63
2021/06/11 08:58:56;;;;;;;4.95;2.58;;;23.50;93.20;;;;;;4154920;28;20497;-62
2021/06/11 09:00:57;;;;;;;5.30;2.78;;;23.50;92.90;;;;;;4154872;28;20490;-63
2021/06/11 09:03:11;;;;;;;2.42;2.20;;;23.60;92.80;;;;;;4153680;28;20115;-62
2021/06/11 09:05:19;;;;;;;6.53;3.20;;;23.90;92.30;;;;;;4154246;28;20168;-63
2021/06/11 09:07:28;;;;;;;2.42;2.22;;;23.80;91.90;;;;;;4154289;28;20045;-63
2021/06/11 09:09:53;;;;;;;6.80;2.53;;;23.60;91.90;;;;;;4154114;28;20099;-62
2021/06/11 09:11:54;;;;;;;9.85;2.25;;;23.60;91.20;;;;;;4154857;28;20143;-63
2021/06/11 09:14:13;;;;;;;2.30;2.10;;;23.60;91.20;;;;;;4157268;28;20575;-61
2021/06/11 09:16:22;;;;;;;6.32;2.40;;;23.70;90.10;;;;;;4157681;28;20049;-61
2021/06/11 09:18:24;;;;;;;3.47;2.15;;;23.50;90.50;;;;;;4138978;28;20172;-61
2021/06/11 09:20:34;;;;;;;1.80;1.70;;;23.20;90.70;;;;;;4157650;28;20025;-62
2021/06/11 09:22:53;;;;;;;4.63;1.80;;;23.10;90.70;;;;;;4156724;28;20045;-64
2021/06/11 09:24:56;;;;;;;4.78;2.40;;;23.00;90.60;;;;;;4158063;28;20029;-62
2021/06/11 09:26:57;;;;;;;2.20;1.95;;;23.20;90.30;;;;;;4157525;28;20029;-62
2021/06/11 09:29:21;;;;;;;3.83;2.25;;;23.30;89.50;;;;;;4157168;28;20516;-61
2021/06/11 09:31:25;;;;;;;2.28;1.92;;;23.30;87.20;;;;;;4157817;28;20063;-63
2021/06/11 09:33:26;;;;;;;2.65;1.98;;;23.20;87.60;;;;;;4157213;28;20025;-64
2021/06/11 09:35:33;;;;;;;2.38;1.48;;;23.20;86.70;;;;;;4157210;28;20056;-62
2021/06/11 09:37:40;;;;;;;4.45;1.90;;;23.30;83.00;;;;;;4157016;28;20041;-61
2021/06/11 09:40:00;;;;;;;2.05;1.90;;;23.30;84.30;;;;;;4157049;28;20125;-63
2021/06/11 09:42:06;;;;;;;2.33;2.13;;;23.40;79.80;;;;;;4157334;28;20033;-60
2021/06/11 09:44:07;;;;;;;3.50;1.70;;;23.50;79.00;;;;;;4138771;28;20439;-62
2021/06/11 09:46:11;;;;;;;5.97;1.77;;;23.30;79.20;;;;;;4157248;28;20080;-62
2021/06/11 09:48:20;;;;;;;2.08;1.67;;;23.20;78.60;;;;;;4157186;28;20030;-62
2021/06/11 09:50:23;;;;;;;1.67;1.58;;;23.10;77.60;;;;;;4157290;28;20033;-63
2021/06/11 09:52:24;;;;;;;3.70;1.85;;;22.90;79.00;;;;;;4157275;28;20565;-63
2021/06/11 09:54:26;;;;;;;3.33;1.60;;;22.80;79.80;;;;;;4157031;28;20079;-64
2021/06/11 09:56:29;;;;;;;2.53;2.15;;;23.00;80.20;;;;;;4157013;28;20166;-63
2021/06/11 09:58:36;;;;;;;4.07;1.83;;;23.10;79.80;;;;;;4156424;28;20175;-62
2021/06/11 10:00:46;;;;;;;2.88;1.83;;;23.40;79.30;;;;;;4156437;28;20137;-62
2021/06/11 10:02:47;;;;;;;6.95;2.17;;;23.40;78.60;;;;;;4157375;28;20079;-63
2021/06/11 10:04:48;;;;;;;3.60;1.88;;;23.40;77.70;;;;;;4156348;28;20071;-64
2021/06/11 10:06:50;;;;;;;2.78;1.90;;;23.40;76.40;;;;;;4156969;28;20095;-63
2021/06/11 10:08:51;;;;;;;5.57;2.00;;;23.40;75.50;;;;;;4156544;28;20111;-62
2021/06/11 10:10:55;;;;;;;2.25;1.85;;;23.40;74.70;;;;;;4155838;28;20293;-61
2021/06/11 10:12:56;;;;;;;2.45;2.08;;;23.40;77.10;;;;;;4156963;28;20119;-63
2021/06/11 10:14:58;;;;;;;2.30;2.10;;;23.40;77.40;;;;;;4156347;28;20041;-64
2021/06/11 10:16:59;;;;;;;3.50;2.30;;;23.30;77.00;;;;;;4156559;28;20083;-63
2021/06/11 10:19:02;;;;;;;8.52;2.15;;;23.40;77.30;;;;;;4156782;28;20034;-62
2021/06/11 10:21:05;;;;;;;2.90;2.20;;;23.50;76.70;;;;;;4156212;28;20099;-64
2021/06/11 10:23:08;;;;;;;3.80;2.60;;;23.40;76.60;;;;;;4155392;28;20513;-63
2021/06/11 10:25:12;;;;;;;2.45;2.20;;;23.60;77.00;;;;;;4155686;28;20474;-61
2021/06/11 10:27:14;;;;;;;1.58;1.48;;;23.90;76.20;;;;;;4156782;28;20099;-63
2021/06/11 10:29:18;;;;;;;2.22;1.98;;;24.00;75.60;;;;;;4156442;28;20044;-64
2021/06/11 10:31:21;;;;;;;5.35;1.90;;;23.90;73.90;;;;;;4156521;28;20382;-61
2021/06/11 10:33:44;;;;;;;3.25;1.60;;;23.70;73.60;;;;;;4156316;28;20033;-62
2021/06/11 10:35:48;;;;;;;2.75;1.85;;;23.80;76.40;;;;;;4156721;28;20029;-61
2021/06/11 10:37:50;;;;;;;4.55;3.08;;;23.70;77.20;;;;;;4138552;28;20853;-61
2021/06/11 10:39:51;;;;;;;3.80;2.30;;;23.80;77.80;;;;;;4156542;28;20060;-62